sensor_id;sensor_type;location;lat;lon;timestamp;temperature;humidity
23259;DHT22;11798;51.528;7.240;2023-02-12T00:01:52;7.90;99.90
23259;DHT22;11798;51.528;7.240;2023-02-12T00:04:18;8.00;99.90
23259;DHT22;11798;51.528;7.240;2023-02-12T00:06:43;8.00;99.90
23259;DHT22;11798;51.528;7.240;2023-02-12T00:09:09;8.00;99.90
23259;DHT22;11798;51.528;7.240;2023-02-12T00:11:35;8.00;99.90
23259;DHT22;11798;51.528;7.240;2023-02-12T00:14:01;8.00;99.90
23259;DHT22;11798;51.528;7.240;2023-02-12T00:16:27;8.00;99.90
23259;DHT22;11798;51.528;7.240;2023-02-12T00:18:54;7.90;99.90
23259;DHT22;11798;51.528;7.240;2023-02-12T00:21:21;7.90;99.90
23259;DHT22;11798;51.528;7.240;2023-02-12T00:23:47;7.90;99.90
23259;DHT22;11798;51.528;7.240;2023-02-12T00:26:15;7.90;99.90
23259;DHT22;11798;51.528;7.240;2023-02-12T00:28:42;7.90;99.90
23259;DHT22;11798;51.528;7.240;2023-02-12T00:31:10;7.90;99.90
23259;DHT22;11798;51.528;7.240;2023-02-12T00:33:36;7.90;99.90
23259;DHT22;11798;51.528;7.240;2023-02-12T00:36:02;8.00;99.90
23259;DHT22;11798;51.528;7.240;2023-02-12T00:38:28;8.00;99.90
23259;DHT22;11798;51.528;7.240;2023-02-12T00:40:53;7.90;99.90
23259;DHT22;11798;51.528;7.240;2023-02-12T00:43:19;7.90;99.90
23259;DHT22;11798;51.528;7.240;2023-02-12T00:45:46;7.90;99.90
23259;DHT22;11798;51.528;7.240;2023-02-12T00:48:12;8.00;99.90
23259;DHT22;11798;51.528;7.240;2023-02-12T00:50:38;8.00;99.90
23259;DHT22;11798;51.528;7.240;2023-02-12T00:53:06;8.00;99.90
23259;DHT22;11798;51.528;7.240;2023-02-12T00:55:32;7.90;99.90
23259;DHT22;11798;51.528;7.240;2023-02-12T00:57:58;8.00;99.90
23259;DHT22;11798;51.528;7.240;2023-02-12T01:00:25;7.90;99.90
23259;DHT22;11798;51.528;7.240;2023-02-12T01:02:50;7.90;99.90
23259;DHT22;11798;51.528;7.240;2023-02-12T01:05:16;7.90;99.90
23259;DHT22;11798;51.528;7.240;2023-02-12T01:07:42;7.80;99.90
23259;DHT22;11798;51.528;7.240;2023-02-12T01:10:08;7.70;99.90
23259;DHT22;11798;51.528;7.240;2023-02-12T01:12:33;7.80;99.90
23259;DHT22;11798;51.528;7.240;2023-02-12T01:14:59;7.80;99.90
23259;DHT22;11798;51.528;7.240;2023-02-12T01:17:25;7.60;99.90
23259;DHT22;11798;51.528;7.240;2023-02-12T01:19:55;7.60;99.90
23259;DHT22;11798;51.528;7.240;2023-02-12T01:22:20;7.70;99.90
23259;DHT22;11798;51.528;7.240;2023-02-12T01:24:46;7.80;99.90
23259;DHT22;11798;51.528;7.240;2023-02-12T01:27:11;7.80;99.90
23259;DHT22;11798;51.528;7.240;2023-02-12T01:29:37;7.70;99.90
23259;DHT22;11798;51.528;7.240;2023-02-12T01:32:04;7.70;99.90
23259;DHT22;11798;51.528;7.240;2023-02-12T01:34:30;7.70;99.90
23259;DHT22;11798;51.528;7.240;2023-02-12T01:36:55;7.60;99.90
23259;DHT22;11798;51.528;7.240;2023-02-12T01:39:21;7.60;99.90
23259;DHT22;11798;51.528;7.240;2023-02-12T01:41:47;7.60;99.90
23259;DHT22;11798;51.528;7.240;2023-02-12T01:46:45;7.60;99.90
23259;DHT22;11798;51.528;7.240;2023-02-12T01:49:35;7.70;99.90
23259;DHT22;11798;51.528;7.240;2023-02-12T01:52:14;7.60;99.90
23259;DHT22;11798;51.528;7.240;2023-02-12T01:54:42;7.60;99.90
23259;DHT22;11798;51.528;7.240;2023-02-12T01:57:08;7.60;99.90
23259;DHT22;11798;51.528;7.240;2023-02-12T01:59:36;7.60;99.90
23259;DHT22;11798;51.528;7.240;2023-02-12T02:02:03;7.60;99.90
23259;DHT22;11798;51.528;7.240;2023-02-12T02:04:50;7.60;99.90
23259;DHT22;11798;51.528;7.240;2023-02-12T02:07:18;7.70;99.90
23259;DHT22;11798;51.528;7.240;2023-02-12T02:09:43;7.60;99.90
23259;DHT22;11798;51.528;7.240;2023-02-12T02:12:10;7.50;99.90
23259;DHT22;11798;51.528;7.240;2023-02-12T02:14:56;7.60;99.90
23259;DHT22;11798;51.528;7.240;2023-02-12T02:17:38;7.60;99.90
23259;DHT22;11798;51.528;7.240;2023-02-12T02:31:15;7.60;99.90
23259;DHT22;11798;51.528;7.240;2023-02-12T02:34:07;7.60;99.90
23259;DHT22;11798;51.528;7.240;2023-02-12T02:39:27;7.70;99.90
23259;DHT22;11798;51.528;7.240;2023-02-12T02:41:57;7.70;99.90
23259;DHT22;11798;51.528;7.240;2023-02-12T02:44:30;7.70;99.90
23259;DHT22;11798;51.528;7.240;2023-02-12T02:46:57;7.70;99.90
23259;DHT22;11798;51.528;7.240;2023-02-12T02:49:27;7.80;99.90
23259;DHT22;11798;51.528;7.240;2023-02-12T02:52:02;7.80;99.90
23259;DHT22;11798;51.528;7.240;2023-02-12T02:54:31;7.80;99.90
23259;DHT22;11798;51.528;7.240;2023-02-12T02:57:07;7.80;99.90
23259;DHT22;11798;51.528;7.240;2023-02-12T02:59:37;7.80;99.90
23259;DHT22;11798;51.528;7.240;2023-02-12T03:02:14;7.80;99.90
23259;DHT22;11798;51.528;7.240;2023-02-12T03:05:06;7.80;99.90
23259;DHT22;11798;51.528;7.240;2023-02-12T03:07:37;7.80;99.90
23259;DHT22;11798;51.528;7.240;2023-02-12T03:10:28;7.80;99.90
23259;DHT22;11798;51.528;7.240;2023-02-12T03:13:08;7.80;99.90
23259;DHT22;11798;51.528;7.240;2023-02-12T03:15:51;7.80;99.90
23259;DHT22;11798;51.528;7.240;2023-02-12T03:18:25;7.80;99.90
23259;DHT22;11798;51.528;7.240;2023-02-12T03:20:56;7.80;99.90
23259;DHT22;11798;51.528;7.240;2023-02-12T03:23:26;7.80;99.90
23259;DHT22;11798;51.528;7.240;2023-02-12T03:26:04;7.80;99.90
23259;DHT22;11798;51.528;7.240;2023-02-12T03:28:33;7.80;99.90
23259;DHT22;11798;51.528;7.240;2023-02-12T03:33:57;7.80;99.90
23259;DHT22;11798;51.528;7.240;2023-02-12T03:38:57;7.60;99.90
23259;DHT22;11798;51.528;7.240;2023-02-12T03:44:28;7.70;99.90
23259;DHT22;11798;51.528;7.240;2023-02-12T03:52:34;7.70;99.90
23259;DHT22;11798;51.528;7.240;2023-02-12T03:55:00;7.70;99.90
23259;DHT22;11798;51.528;7.240;2023-02-12T03:57:29;7.60;99.90
23259;DHT22;11798;51.528;7.240;2023-02-12T04:00:05;7.60;99.90
23259;DHT22;11798;51.528;7.240;2023-02-12T04:02:30;7.50;99.90
23259;DHT22;11798;51.528;7.240;2023-02-12T04:04:56;7.50;99.90
23259;DHT22;11798;51.528;7.240;2023-02-12T04:07:22;7.60;99.90
23259;DHT22;11798;51.528;7.240;2023-02-12T04:09:48;7.60;99.90
23259;DHT22;11798;51.528;7.240;2023-02-12T04:20:56;7.60;99.90
23259;DHT22;11798;51.528;7.240;2023-02-12T04:26:35;7.60;99.90
23259;DHT22;11798;51.528;7.240;2023-02-12T04:29:15;7.60;99.90
23259;DHT22;11798;51.528;7.240;2023-02-12T04:32:34;7.70;99.90
23259;DHT22;11798;51.528;7.240;2023-02-12T04:34:51;7.70;99.90
23259;DHT22;11798;51.528;7.240;2023-02-12T04:37:45;7.70;99.90
23259;DHT22;11798;51.528;7.240;2023-02-12T04:40:15;7.70;99.90
23259;DHT22;11798;51.528;7.240;2023-02-12T04:42:47;7.80;99.90
23259;DHT22;11798;51.528;7.240;2023-02-12T04:45:15;7.80;99.90
23259;DHT22;11798;51.528;7.240;2023-02-12T04:47:44;7.80;99.90
23259;DHT22;11798;51.528;7.240;2023-02-12T04:50:10;7.70;99.90
23259;DHT22;11798;51.528;7.240;2023-02-12T04:52:36;7.60;99.90
23259;DHT22;11798;51.528;7.240;2023-02-12T04:55:02;7.60;99.90
23259;DHT22;11798;51.528;7.240;2023-02-12T04:57:27;7.70;99.90
23259;DHT22;11798;51.528;7.240;2023-02-12T04:59:53;7.70;99.90
23259;DHT22;11798;51.528;7.240;2023-02-12T05:02:19;7.70;99.90
23259;DHT22;11798;51.528;7.240;2023-02-12T05:04:44;7.70;99.90
23259;DHT22;11798;51.528;7.240;2023-02-12T05:07:10;7.70;99.90
23259;DHT22;11798;51.528;7.240;2023-02-12T05:09:36;7.70;99.90
23259;DHT22;11798;51.528;7.240;2023-02-12T05:12:02;7.70;99.90
23259;DHT22;11798;51.528;7.240;2023-02-12T05:14:27;7.80;99.90
23259;DHT22;11798;51.528;7.240;2023-02-12T05:16:54;7.80;99.90
23259;DHT22;11798;51.528;7.240;2023-02-12T05:19:19;7.70;99.90
23259;DHT22;11798;51.528;7.240;2023-02-12T05:21:45;7.70;99.90
23259;DHT22;11798;51.528;7.240;2023-02-12T05:24:10;7.70;99.90
23259;DHT22;11798;51.528;7.240;2023-02-12T05:26:36;7.70;99.90
23259;DHT22;11798;51.528;7.240;2023-02-12T05:29:02;7.70;99.90
23259;DHT22;11798;51.528;7.240;2023-02-12T05:31:28;7.70;99.90
23259;DHT22;11798;51.528;7.240;2023-02-12T05:33:53;7.80;99.90
23259;DHT22;11798;51.528;7.240;2023-02-12T05:36:21;7.80;99.90
23259;DHT22;11798;51.528;7.240;2023-02-12T05:38:48;7.80;99.90
23259;DHT22;11798;51.528;7.240;2023-02-12T05:41:18;7.80;99.90
23259;DHT22;11798;51.528;7.240;2023-02-12T05:43:44;7.80;99.90
23259;DHT22;11798;51.528;7.240;2023-02-12T05:46:11;7.80;99.90
23259;DHT22;11798;51.528;7.240;2023-02-12T05:48:37;7.80;99.90
23259;DHT22;11798;51.528;7.240;2023-02-12T05:51:07;7.80;99.90
23259;DHT22;11798;51.528;7.240;2023-02-12T05:53:33;7.80;99.90
23259;DHT22;11798;51.528;7.240;2023-02-12T05:56:35;7.80;99.90
23259;DHT22;11798;51.528;7.240;2023-02-12T05:59:06;7.80;99.90
23259;DHT22;11798;51.528;7.240;2023-02-12T06:01:40;7.70;99.90
23259;DHT22;11798;51.528;7.240;2023-02-12T06:04:10;7.70;99.90
23259;DHT22;11798;51.528;7.240;2023-02-12T06:06:37;7.70;99.90
23259;DHT22;11798;51.528;7.240;2023-02-12T06:09:07;7.70;99.90
23259;DHT22;11798;51.528;7.240;2023-02-12T06:11:33;7.70;99.90
23259;DHT22;11798;51.528;7.240;2023-02-12T06:14:04;7.70;99.90
23259;DHT22;11798;51.528;7.240;2023-02-12T06:16:31;7.70;99.90
23259;DHT22;11798;51.528;7.240;2023-02-12T06:18:57;7.60;99.90
23259;DHT22;11798;51.528;7.240;2023-02-12T06:21:24;7.70;99.90
23259;DHT22;11798;51.528;7.240;2023-02-12T06:23:51;7.70;99.90
23259;DHT22;11798;51.528;7.240;2023-02-12T06:26:17;7.70;99.90
23259;DHT22;11798;51.528;7.240;2023-02-12T06:28:43;7.70;99.90
23259;DHT22;11798;51.528;7.240;2023-02-12T06:33:47;7.70;99.90
23259;DHT22;11798;51.528;7.240;2023-02-12T06:36:13;7.70;99.90
23259;DHT22;11798;51.528;7.240;2023-02-12T06:38:39;7.70;99.90
23259;DHT22;11798;51.528;7.240;2023-02-12T06:41:05;7.70;99.90
23259;DHT22;11798;51.528;7.240;2023-02-12T06:43:30;7.80;99.90
23259;DHT22;11798;51.528;7.240;2023-02-12T06:45:59;7.80;99.90
23259;DHT22;11798;51.528;7.240;2023-02-12T06:48:25;7.80;99.90
23259;DHT22;11798;51.528;7.240;2023-02-12T06:50:51;7.70;99.90
23259;DHT22;11798;51.528;7.240;2023-02-12T06:53:16;7.80;99.90
23259;DHT22;11798;51.528;7.240;2023-02-12T06:55:42;7.70;99.90
23259;DHT22;11798;51.528;7.240;2023-02-12T06:58:08;7.80;99.90
23259;DHT22;11798;51.528;7.240;2023-02-12T07:00:33;7.80;99.90
23259;DHT22;11798;51.528;7.240;2023-02-12T07:02:59;7.70;99.90
23259;DHT22;11798;51.528;7.240;2023-02-12T07:05:25;7.70;99.90
23259;DHT22;11798;51.528;7.240;2023-02-12T07:07:50;7.70;99.90
23259;DHT22;11798;51.528;7.240;2023-02-12T07:10:17;7.70;99.90
23259;DHT22;11798;51.528;7.240;2023-02-12T07:12:43;7.70;99.90
23259;DHT22;11798;51.528;7.240;2023-02-12T07:15:09;7.80;99.90
23259;DHT22;11798;51.528;7.240;2023-02-12T07:17:35;7.80;99.90
23259;DHT22;11798;51.528;7.240;2023-02-12T07:20:02;7.80;99.90
23259;DHT22;11798;51.528;7.240;2023-02-12T07:22:27;7.80;99.90
23259;DHT22;11798;51.528;7.240;2023-02-12T07:24:53;7.70;99.90
23259;DHT22;11798;51.528;7.240;2023-02-12T07:27:19;7.70;99.90
23259;DHT22;11798;51.528;7.240;2023-02-12T07:29:44;7.70;99.90
23259;DHT22;11798;51.528;7.240;2023-02-12T07:32:10;7.60;99.90
23259;DHT22;11798;51.528;7.240;2023-02-12T07:34:35;7.70;99.90
23259;DHT22;11798;51.528;7.240;2023-02-12T07:37:01;7.70;99.90
23259;DHT22;11798;51.528;7.240;2023-02-12T07:39:27;7.80;99.90
23259;DHT22;11798;51.528;7.240;2023-02-12T07:41:52;7.80;99.90
23259;DHT22;11798;51.528;7.240;2023-02-12T07:44:20;7.80;99.90
23259;DHT22;11798;51.528;7.240;2023-02-12T07:46:47;7.80;99.90
23259;DHT22;11798;51.528;7.240;2023-02-12T07:49:18;7.90;99.90
23259;DHT22;11798;51.528;7.240;2023-02-12T07:51:44;7.90;99.90
23259;DHT22;11798;51.528;7.240;2023-02-12T07:54:11;7.90;99.90
23259;DHT22;11798;51.528;7.240;2023-02-12T07:56:38;7.90;99.90
23259;DHT22;11798;51.528;7.240;2023-02-12T07:59:06;7.90;99.90
23259;DHT22;11798;51.528;7.240;2023-02-12T08:01:34;7.90;99.90
23259;DHT22;11798;51.528;7.240;2023-02-12T08:04:09;8.00;99.90
23259;DHT22;11798;51.528;7.240;2023-02-12T08:06:38;7.90;99.90
23259;DHT22;11798;51.528;7.240;2023-02-12T08:09:06;8.00;99.90
23259;DHT22;11798;51.528;7.240;2023-02-12T08:11:35;8.00;99.90
23259;DHT22;11798;51.528;7.240;2023-02-12T08:14:01;8.00;99.90
23259;DHT22;11798;51.528;7.240;2023-02-12T08:16:28;8.10;99.90
23259;DHT22;11798;51.528;7.240;2023-02-12T08:18:55;8.10;99.90
23259;DHT22;11798;51.528;7.240;2023-02-12T08:21:22;8.20;99.90
23259;DHT22;11798;51.528;7.240;2023-02-12T08:23:48;8.10;99.90
23259;DHT22;11798;51.528;7.240;2023-02-12T08:26:18;8.20;99.90
23259;DHT22;11798;51.528;7.240;2023-02-12T08:28:49;8.20;99.90
23259;DHT22;11798;51.528;7.240;2023-02-12T08:31:20;8.20;99.90
23259;DHT22;11798;51.528;7.240;2023-02-12T08:33:47;8.20;99.90
23259;DHT22;11798;51.528;7.240;2023-02-12T08:36:15;8.20;99.90
23259;DHT22;11798;51.528;7.240;2023-02-12T08:38:43;8.30;99.90
23259;DHT22;11798;51.528;7.240;2023-02-12T08:41:18;8.30;99.90
23259;DHT22;11798;51.528;7.240;2023-02-12T08:43:44;8.30;99.90
23259;DHT22;11798;51.528;7.240;2023-02-12T08:46:12;8.40;99.90
23259;DHT22;11798;51.528;7.240;2023-02-12T08:48:39;8.40;99.90
23259;DHT22;11798;51.528;7.240;2023-02-12T08:51:09;8.40;99.90
23259;DHT22;11798;51.528;7.240;2023-02-12T08:53:36;8.50;99.90
23259;DHT22;11798;51.528;7.240;2023-02-12T08:56:02;8.40;99.90
23259;DHT22;11798;51.528;7.240;2023-02-12T08:58:28;8.40;99.90
23259;DHT22;11798;51.528;7.240;2023-02-12T09:00:54;8.50;99.90
23259;DHT22;11798;51.528;7.240;2023-02-12T09:03:19;8.50;99.90
23259;DHT22;11798;51.528;7.240;2023-02-12T09:05:45;8.60;99.90
23259;DHT22;11798;51.528;7.240;2023-02-12T09:08:11;8.60;99.90
23259;DHT22;11798;51.528;7.240;2023-02-12T09:10:41;8.60;99.90
23259;DHT22;11798;51.528;7.240;2023-02-12T09:13:08;8.60;99.90
23259;DHT22;11798;51.528;7.240;2023-02-12T09:15:38;8.70;99.90
23259;DHT22;11798;51.528;7.240;2023-02-12T09:18:04;8.60;99.90
23259;DHT22;11798;51.528;7.240;2023-02-12T09:20:30;8.70;99.90
23259;DHT22;11798;51.528;7.240;2023-02-12T09:23:00;8.80;99.90
23259;DHT22;11798;51.528;7.240;2023-02-12T09:25:25;8.80;99.90
23259;DHT22;11798;51.528;7.240;2023-02-12T09:27:51;8.90;99.90
23259;DHT22;11798;51.528;7.240;2023-02-12T09:30:17;8.80;99.90
23259;DHT22;11798;51.528;7.240;2023-02-12T09:32:43;8.80;99.90
23259;DHT22;11798;51.528;7.240;2023-02-12T09:35:09;8.90;99.90
23259;DHT22;11798;51.528;7.240;2023-02-12T09:37:37;9.00;99.90
23259;DHT22;11798;51.528;7.240;2023-02-12T09:40:06;9.00;99.90
23259;DHT22;11798;51.528;7.240;2023-02-12T09:42:43;9.00;99.90
23259;DHT22;11798;51.528;7.240;2023-02-12T09:45:22;9.10;99.90
23259;DHT22;11798;51.528;7.240;2023-02-12T09:47:54;9.20;99.90
23259;DHT22;11798;51.528;7.240;2023-02-12T09:53:18;9.30;99.90
23259;DHT22;11798;51.528;7.240;2023-02-12T09:55:44;9.20;99.90
23259;DHT22;11798;51.528;7.240;2023-02-12T09:58:48;9.30;99.90
23259;DHT22;11798;51.528;7.240;2023-02-12T10:01:15;9.20;99.90
23259;DHT22;11798;51.528;7.240;2023-02-12T10:03:42;9.20;99.90
23259;DHT22;11798;51.528;7.240;2023-02-12T10:06:16;9.30;99.90
23259;DHT22;11798;51.528;7.240;2023-02-12T10:27:14;9.50;99.90
23259;DHT22;11798;51.528;7.240;2023-02-12T10:29:42;9.50;99.90
23259;DHT22;11798;51.528;7.240;2023-02-12T10:34:49;9.50;99.90
23259;DHT22;11798;51.528;7.240;2023-02-12T10:37:50;9.70;99.90
23259;DHT22;11798;51.528;7.240;2023-02-12T10:40:25;9.80;99.90
23259;DHT22;11798;51.528;7.240;2023-02-12T10:42:53;9.80;99.90
23259;DHT22;11798;51.528;7.240;2023-02-12T10:45:35;9.80;99.90
23259;DHT22;11798;51.528;7.240;2023-02-12T10:48:28;9.80;99.90
23259;DHT22;11798;51.528;7.240;2023-02-12T10:58:52;9.80;99.90
23259;DHT22;11798;51.528;7.240;2023-02-12T11:03:54;9.80;99.90
23259;DHT22;11798;51.528;7.240;2023-02-12T11:06:23;9.90;99.90
23259;DHT22;11798;51.528;7.240;2023-02-12T11:08:50;10.00;99.90
23259;DHT22;11798;51.528;7.240;2023-02-12T11:14:37;10.00;99.90
23259;DHT22;11798;51.528;7.240;2023-02-12T11:16:44;10.00;99.90
23259;DHT22;11798;51.528;7.240;2023-02-12T11:19:21;10.00;99.90
23259;DHT22;11798;51.528;7.240;2023-02-12T11:21:47;10.10;99.90
23259;DHT22;11798;51.528;7.240;2023-02-12T11:26:51;10.30;99.90
23259;DHT22;11798;51.528;7.240;2023-02-12T11:29:22;10.30;99.90
23259;DHT22;11798;51.528;7.240;2023-02-12T11:32:05;10.30;99.90
23259;DHT22;11798;51.528;7.240;2023-02-12T11:34:33;10.20;99.90
23259;DHT22;11798;51.528;7.240;2023-02-12T11:36:59;10.20;99.90
23259;DHT22;11798;51.528;7.240;2023-02-12T11:39:30;10.20;99.90
23259;DHT22;11798;51.528;7.240;2023-02-12T11:42:19;10.30;99.90
23259;DHT22;11798;51.528;7.240;2023-02-12T11:44:56;10.30;99.90
23259;DHT22;11798;51.528;7.240;2023-02-12T11:47:26;10.30;99.90
23259;DHT22;11798;51.528;7.240;2023-02-12T11:50:05;10.30;99.90
23259;DHT22;11798;51.528;7.240;2023-02-12T11:52:34;10.30;99.90
23259;DHT22;11798;51.528;7.240;2023-02-12T11:55:17;10.40;99.90
23259;DHT22;11798;51.528;7.240;2023-02-12T11:57:47;10.40;99.90
23259;DHT22;11798;51.528;7.240;2023-02-12T12:00:36;10.40;99.90
23259;DHT22;11798;51.528;7.240;2023-02-12T12:06:09;10.60;99.90
23259;DHT22;11798;51.528;7.240;2023-02-12T12:08:50;10.70;99.90
23259;DHT22;11798;51.528;7.240;2023-02-12T12:11:23;10.80;99.90
23259;DHT22;11798;51.528;7.240;2023-02-12T12:14:01;10.60;99.90
23259;DHT22;11798;51.528;7.240;2023-02-12T12:16:37;10.60;99.90
23259;DHT22;11798;51.528;7.240;2023-02-12T12:19:35;10.60;99.90
23259;DHT22;11798;51.528;7.240;2023-02-12T12:33:29;10.70;99.90
23259;DHT22;11798;51.528;7.240;2023-02-12T12:36:04;10.70;99.90
23259;DHT22;11798;51.528;7.240;2023-02-12T12:41:34;10.50;99.90
23259;DHT22;11798;51.528;7.240;2023-02-12T12:47:16;10.50;99.90
23259;DHT22;11798;51.528;7.240;2023-02-12T12:49:59;10.40;99.90
23259;DHT22;11798;51.528;7.240;2023-02-12T12:53:02;10.40;99.90
23259;DHT22;11798;51.528;7.240;2023-02-12T12:58:42;10.30;99.90
23259;DHT22;11798;51.528;7.240;2023-02-12T13:07:05;10.30;99.90
23259;DHT22;11798;51.528;7.240;2023-02-12T13:18:08;10.40;99.90
23259;DHT22;11798;51.528;7.240;2023-02-12T13:20:59;10.30;99.90
23259;DHT22;11798;51.528;7.240;2023-02-12T13:23:53;10.40;99.90
23259;DHT22;11798;51.528;7.240;2023-02-12T13:29:16;10.50;99.90
23259;DHT22;11798;51.528;7.240;2023-02-12T13:31:51;10.30;99.90
23259;DHT22;11798;51.528;7.240;2023-02-12T13:34:19;10.30;99.90
23259;DHT22;11798;51.528;7.240;2023-02-12T13:36:45;10.20;99.90
23259;DHT22;11798;51.528;7.240;2023-02-12T13:39:21;10.20;99.90
23259;DHT22;11798;51.528;7.240;2023-02-12T13:42:00;10.20;99.90
23259;DHT22;11798;51.528;7.240;2023-02-12T13:45:01;10.30;99.90
23259;DHT22;11798;51.528;7.240;2023-02-12T13:53:10;10.20;99.90
23259;DHT22;11798;51.528;7.240;2023-02-12T14:01:04;10.30;99.90
23259;DHT22;11798;51.528;7.240;2023-02-12T14:03:32;10.40;99.90
23259;DHT22;11798;51.528;7.240;2023-02-12T14:08:37;10.30;99.90
23259;DHT22;11798;51.528;7.240;2023-02-12T14:11:11;10.40;99.90
23259;DHT22;11798;51.528;7.240;2023-02-12T14:14:04;10.40;99.90
23259;DHT22;11798;51.528;7.240;2023-02-12T14:22:13;10.30;99.90
23259;DHT22;11798;51.528;7.240;2023-02-12T14:25:00;10.40;99.90
23259;DHT22;11798;51.528;7.240;2023-02-12T14:27:33;10.20;99.90
23259;DHT22;11798;51.528;7.240;2023-02-12T14:38:00;10.20;99.90
23259;DHT22;11798;51.528;7.240;2023-02-12T14:43:00;10.10;99.90
23259;DHT22;11798;51.528;7.240;2023-02-12T14:45:36;10.10;99.90
23259;DHT22;11798;51.528;7.240;2023-02-12T14:48:04;10.10;99.90
23259;DHT22;11798;51.528;7.240;2023-02-12T14:50:37;10.10;99.90
23259;DHT22;11798;51.528;7.240;2023-02-12T14:53:12;10.10;99.90
23259;DHT22;11798;51.528;7.240;2023-02-12T14:55:45;10.10;99.90
23259;DHT22;11798;51.528;7.240;2023-02-12T14:58:19;10.00;99.90
23259;DHT22;11798;51.528;7.240;2023-02-12T15:00:48;10.00;99.90
23259;DHT22;11798;51.528;7.240;2023-02-12T15:03:19;10.00;99.90
23259;DHT22;11798;51.528;7.240;2023-02-12T15:06:03;10.00;99.90
23259;DHT22;11798;51.528;7.240;2023-02-12T15:08:55;10.00;99.90
23259;DHT22;11798;51.528;7.240;2023-02-12T15:14:15;9.90;99.90
23259;DHT22;11798;51.528;7.240;2023-02-12T15:16:53;10.00;99.90
23259;DHT22;11798;51.528;7.240;2023-02-12T15:19:30;9.90;99.90
23259;DHT22;11798;51.528;7.240;2023-02-12T15:21:59;9.90;99.90
23259;DHT22;11798;51.528;7.240;2023-02-12T15:24:25;9.80;99.90
23259;DHT22;11798;51.528;7.240;2023-02-12T15:26:58;9.70;99.90
23259;DHT22;11798;51.528;7.240;2023-02-12T15:32:01;9.70;99.90
23259;DHT22;11798;51.528;7.240;2023-02-12T15:34:31;9.60;99.90
23259;DHT22;11798;51.528;7.240;2023-02-12T15:37:00;9.70;99.90
23259;DHT22;11798;51.528;7.240;2023-02-12T15:39:38;9.70;99.90
23259;DHT22;11798;51.528;7.240;2023-02-12T15:42:26;9.80;99.90
23259;DHT22;11798;51.528;7.240;2023-02-12T15:45:22;9.80;99.90
23259;DHT22;11798;51.528;7.240;2023-02-12T15:50:53;9.70;99.90
23259;DHT22;11798;51.528;7.240;2023-02-12T15:53:22;9.60;99.90
23259;DHT22;11798;51.528;7.240;2023-02-12T15:55:50;9.70;99.90
23259;DHT22;11798;51.528;7.240;2023-02-12T15:58:23;9.60;99.90
23259;DHT22;11798;51.528;7.240;2023-02-12T16:00:49;9.60;99.90
23259;DHT22;11798;51.528;7.240;2023-02-12T16:03:25;9.70;99.90
23259;DHT22;11798;51.528;7.240;2023-02-12T16:05:51;9.70;99.90
23259;DHT22;11798;51.528;7.240;2023-02-12T16:08:20;9.60;99.90
23259;DHT22;11798;51.528;7.240;2023-02-12T16:10:51;9.60;99.90
23259;DHT22;11798;51.528;7.240;2023-02-12T16:13:20;9.50;99.90
23259;DHT22;11798;51.528;7.240;2023-02-12T16:16:04;9.40;99.90
23259;DHT22;11798;51.528;7.240;2023-02-12T16:18:30;9.30;99.90
23259;DHT22;11798;51.528;7.240;2023-02-12T16:21:20;9.30;99.90
23259;DHT22;11798;51.528;7.240;2023-02-12T16:23:48;9.40;99.90
23259;DHT22;11798;51.528;7.240;2023-02-12T16:26:25;9.30;99.90
23259;DHT22;11798;51.528;7.240;2023-02-12T16:28:53;9.30;99.90
23259;DHT22;11798;51.528;7.240;2023-02-12T16:31:22;9.20;99.90
23259;DHT22;11798;51.528;7.240;2023-02-12T16:33:50;9.30;99.90
23259;DHT22;11798;51.528;7.240;2023-02-12T16:43:45;9.10;99.90
23259;DHT22;11798;51.528;7.240;2023-02-12T16:46:12;9.10;99.90
23259;DHT22;11798;51.528;7.240;2023-02-12T16:48:47;9.10;99.90
23259;DHT22;11798;51.528;7.240;2023-02-12T16:51:23;9.10;99.90
23259;DHT22;11798;51.528;7.240;2023-02-12T16:53:49;9.10;99.90
23259;DHT22;11798;51.528;7.240;2023-02-12T16:56:20;9.10;99.90
23259;DHT22;11798;51.528;7.240;2023-02-12T16:58:48;9.10;99.90
23259;DHT22;11798;51.528;7.240;2023-02-12T17:01:19;9.10;99.90
23259;DHT22;11798;51.528;7.240;2023-02-12T17:03:46;9.00;99.90
23259;DHT22;11798;51.528;7.240;2023-02-12T17:06:19;9.00;99.90
23259;DHT22;11798;51.528;7.240;2023-02-12T17:08:45;9.00;99.90
23259;DHT22;11798;51.528;7.240;2023-02-12T17:11:11;9.00;99.90
23259;DHT22;11798;51.528;7.240;2023-02-12T17:13:38;9.00;99.90
23259;DHT22;11798;51.528;7.240;2023-02-12T17:16:04;8.90;99.90
23259;DHT22;11798;51.528;7.240;2023-02-12T17:18:30;8.90;99.90
23259;DHT22;11798;51.528;7.240;2023-02-12T17:21:24;8.90;99.90
23259;DHT22;11798;51.528;7.240;2023-02-12T17:23:50;8.90;99.90
23259;DHT22;11798;51.528;7.240;2023-02-12T17:26:18;9.00;99.90
23259;DHT22;11798;51.528;7.240;2023-02-12T17:28:43;8.90;99.90
23259;DHT22;11798;51.528;7.240;2023-02-12T17:31:10;9.00;99.90
23259;DHT22;11798;51.528;7.240;2023-02-12T17:33:36;8.90;99.90
23259;DHT22;11798;51.528;7.240;2023-02-12T17:36:02;9.00;99.90
23259;DHT22;11798;51.528;7.240;2023-02-12T17:38:28;9.10;99.90
23259;DHT22;11798;51.528;7.240;2023-02-12T17:40:54;9.00;99.90
23259;DHT22;11798;51.528;7.240;2023-02-12T17:43:19;9.00;99.90
23259;DHT22;11798;51.528;7.240;2023-02-12T17:45:45;9.00;99.90
23259;DHT22;11798;51.528;7.240;2023-02-12T17:48:12;9.00;99.90
23259;DHT22;11798;51.528;7.240;2023-02-12T17:50:38;9.00;99.90
23259;DHT22;11798;51.528;7.240;2023-02-12T17:53:05;9.00;99.90
23259;DHT22;11798;51.528;7.240;2023-02-12T17:55:31;9.00;99.90
23259;DHT22;11798;51.528;7.240;2023-02-12T17:57:57;9.00;99.90
23259;DHT22;11798;51.528;7.240;2023-02-12T18:00:23;9.00;99.90
23259;DHT22;11798;51.528;7.240;2023-02-12T18:02:49;9.00;99.90
23259;DHT22;11798;51.528;7.240;2023-02-12T18:05:15;9.00;99.90
23259;DHT22;11798;51.528;7.240;2023-02-12T18:07:41;9.00;99.90
23259;DHT22;11798;51.528;7.240;2023-02-12T18:10:07;9.00;99.90
23259;DHT22;11798;51.528;7.240;2023-02-12T18:12:33;8.90;99.90
23259;DHT22;11798;51.528;7.240;2023-02-12T18:15:01;8.80;99.90
23259;DHT22;11798;51.528;7.240;2023-02-12T18:17:27;8.90;99.90
23259;DHT22;11798;51.528;7.240;2023-02-12T18:19:53;8.90;99.90
23259;DHT22;11798;51.528;7.240;2023-02-12T18:22:20;8.80;99.90
23259;DHT22;11798;51.528;7.240;2023-02-12T18:24:46;8.80;99.90
23259;DHT22;11798;51.528;7.240;2023-02-12T18:27:13;8.80;99.90
23259;DHT22;11798;51.528;7.240;2023-02-12T18:29:38;8.90;99.90
23259;DHT22;11798;51.528;7.240;2023-02-12T18:32:04;8.90;99.90
23259;DHT22;11798;51.528;7.240;2023-02-12T18:34:31;8.80;99.90
23259;DHT22;11798;51.528;7.240;2023-02-12T18:36:57;8.80;99.90
23259;DHT22;11798;51.528;7.240;2023-02-12T18:39:23;8.80;99.90
23259;DHT22;11798;51.528;7.240;2023-02-12T18:41:48;8.80;99.90
23259;DHT22;11798;51.528;7.240;2023-02-12T18:44:14;8.80;99.90
23259;DHT22;11798;51.528;7.240;2023-02-12T18:46:40;8.80;99.90
23259;DHT22;11798;51.528;7.240;2023-02-12T18:49:06;8.80;99.90
23259;DHT22;11798;51.528;7.240;2023-02-12T18:51:32;8.70;99.90
23259;DHT22;11798;51.528;7.240;2023-02-12T18:54:04;8.70;99.90